Stevensville, MI (49127)

1:22 AM EDT on May 07, 2015 (GMT -0400)
EARLS ROOF | | Change Station
CLOSE
Current Station
Personal Weather Station
Location: Stevensville, MI
Elevation: 620 ft
Nearby Weather Stations

Elev 620 ft 42.01 °N, 86.52 °W | Updated 387 days ago

Clear
Clear
60 °F
Feels Like 60 °F
N
6
Wind Variable Wind from SE
Gusts 10 mph

Today
High -- | Low -- °F
--% Chance of Precip.
Yesterday
High -- | Low -- °F
Precip. -- in
6:34 AM 8:51 PM
Waning Gibbous, 90% visible
Pressure 30.10 in
Visibility 7.0 miles
Clouds Clear
Dew Point 55 °F
Humidity 82%
Rainfall in
Snow Depth Not available.
UV 0 out of 12
Pollen 8.20 out of 12
Air Quality Not available.
Flu Activity Regional
METAR KBEH 070453Z AUTO 13009KT 7SM CLR 19/16 A3010 RMK AO2 SLP191 T01890161 402560106

More Conditions Fewer Conditions

Pressure 30.10 in
Visibility 7.0 miles
Clouds Clear
Dew Point 55 °F
Humidity 82%
Rainfall in
Snow Depth Not available.
UV 0 out of 12
Pollen 8.20 out of 12
Air Quality Not available.
Flu Activity Regional
METAR KBEH 070453Z AUTO 13009KT 7SM CLR 19/16 A3010 RMK AO2 SLP191 T01890161 402560106

More Conditions Fewer Conditions

10-Day Weather Forecast

Almanac

Astronomy

May. 07, 2015 Rise Set
Actual Time
Civil Twilight
Nautical Twilight
Astronomical Twilight
Moon
Length of Visible Light
Length of Day
Tomorrow will be .
, % of the Moon is Illuminated

Today's Extremes

State Highs State Lows

Community

WunderPhotos

Upload Photos

1,819,126 photos uploaded!

WunderBlogs® & News

Nearby

Air Quality

  Air Quality AQ Index Pollutant
Not available.

Snow Depth

Station Depth Elevation

Earthquake Activity

City Distance Mag. Time & Date
Minimum magnitude displayed is 2.5.

Coastal Water Temperatures

Place Temperature

Stations

Nearby Weather Stations

Station Location Temp. Windchill Dew Point Humidity Wind Precip. Elev Updated Type